Time;durP1;ratioP1;P1;durP2;ratioP2;P2;SDS_P1;SDS_P2;PMS_P1;PMS_P2;Temp;Humidity;BMP_temperature;BMP_pressure;BME280_temperature;BME280_humidity;BME280_pressure;Samples;Min_cycle;Max_cycle;Signal;HPM_P1;HPM_P2
2023/08/27 00:01:11;;;;;;;0.00;0.00;;;16.80;99.90;;;;;;5050632;28;20193;-63
2023/08/27 00:03:36;;;;;;;0.00;0.00;;;16.80;99.90;;;;;;5051596;28;20207;-63
2023/08/27 00:06:02;;;;;;;0.00;0.00;;;16.80;99.90;;;;;;5051515;28;20174;-63
2023/08/27 00:08:28;;;;;;;0.00;0.00;;;16.80;99.90;;;;;;5051292;28;20195;-63
2023/08/27 00:11:00;;;;;;;0.00;0.00;;;16.80;99.90;;;;;;5049580;28;20246;-63
2023/08/27 00:13:26;;;;;;;0.00;0.00;;;16.80;99.90;;;;;;5046697;28;20724;-63
2023/08/27 00:15:52;;;;;;;0.00;0.00;;;16.80;99.90;;;;;;5051139;28;20272;-63
2023/08/27 00:18:17;;;;;;;0.35;0.15;;;16.80;99.90;;;;;;5050755;28;20209;-63
2023/08/27 00:20:46;;;;;;;0.00;0.00;;;16.80;99.90;;;;;;5051030;28;20185;-63
2023/08/27 00:23:11;;;;;;;0.00;0.00;;;16.90;99.90;;;;;;5050933;28;20177;-63
2023/08/27 00:25:37;;;;;;;0.00;0.00;;;16.80;99.90;;;;;;5051142;28;20188;-63
2023/08/27 00:28:03;;;;;;;0.00;0.00;;;16.90;99.90;;;;;;5050925;28;20193;-63
2023/08/27 00:30:29;;;;;;;0.00;0.00;;;16.90;99.90;;;;;;5051031;28;20287;-63
2023/08/27 00:32:54;;;;;;;0.00;0.00;;;16.90;99.90;;;;;;5051063;28;20185;-63
2023/08/27 00:35:20;;;;;;;0.00;0.00;;;16.90;99.90;;;;;;5050660;28;20185;-63
2023/08/27 00:37:45;;;;;;;0.00;0.00;;;16.90;99.90;;;;;;5050831;28;20201;-63
2023/08/27 00:40:11;;;;;;;0.15;0.15;;;16.90;99.90;;;;;;5050857;28;20268;-63
2023/08/27 00:42:36;;;;;;;0.00;0.00;;;16.90;99.90;;;;;;5050779;28;20649;-63
2023/08/27 00:45:03;;;;;;;0.00;0.00;;;16.90;99.90;;;;;;5042882;28;20178;-63
2023/08/27 00:47:30;;;;;;;0.00;0.00;;;17.00;99.90;;;;;;5050978;28;20216;-63
2023/08/27 00:49:56;;;;;;;0.00;0.00;;;17.00;99.90;;;;;;5050521;28;20197;-63
2023/08/27 00:52:23;;;;;;;0.10;0.00;;;17.00;99.90;;;;;;5049726;28;20263;-62
2023/08/27 00:54:50;;;;;;;0.00;0.00;;;17.00;99.90;;;;;;5050746;28;20261;-63
2023/08/27 00:57:18;;;;;;;0.00;0.00;;;17.00;99.90;;;;;;5050665;28;20812;-63
2023/08/27 00:59:45;;;;;;;0.00;0.00;;;17.00;99.90;;;;;;5049746;28;20190;-63
2023/08/27 01:02:11;;;;;;;0.00;0.00;;;17.00;99.90;;;;;;5050094;28;20655;-63
2023/08/27 01:04:37;;;;;;;0.00;0.00;;;17.00;99.90;;;;;;5050646;28;20267;-63
2023/08/27 01:07:11;;;;;;;0.10;0.10;;;17.00;99.90;;;;;;5050334;28;20779;-63
2023/08/27 01:09:44;;;;;;;0.00;0.00;;;17.10;99.90;;;;;;5050573;28;20238;-63
2023/08/27 01:12:32;;;;;;;0.00;0.00;;;17.10;99.90;;;;;;5043412;28;20188;-63
2023/08/27 01:14:59;;;;;;;0.00;0.00;;;17.00;99.90;;;;;;5050462;28;20221;-63
2023/08/27 01:17:25;;;;;;;0.00;0.00;;;17.00;99.90;;;;;;5050006;28;20213;-63
2023/08/27 01:19:51;;;;;;;0.00;0.00;;;17.00;99.90;;;;;;5050371;28;20182;-63
2023/08/27 01:22:17;;;;;;;0.00;0.00;;;17.00;99.90;;;;;;5034401;28;20656;-63
2023/08/27 01:24:42;;;;;;;0.00;0.00;;;17.00;99.90;;;;;;5050318;28;20192;-63
2023/08/27 01:27:15;;;;;;;0.00;0.00;;;17.10;99.90;;;;;;5050324;28;20185;-63
2023/08/27 01:30:16;;;;;;;0.00;0.00;;;17.10;99.90;;;;;;5050119;28;20209;-63
2023/08/27 01:32:51;;;;;;;0.00;0.00;;;17.10;99.90;;;;;;5035464;28;20229;-63
2023/08/27 01:35:17;;;;;;;0.00;0.00;;;17.10;99.90;;;;;;5050224;28;20185;-63
2023/08/27 01:37:43;;;;;;;0.00;0.00;;;17.10;99.90;;;;;;5049839;28;20213;-63
2023/08/27 01:40:09;;;;;;;0.00;0.00;;;17.10;99.90;;;;;;5049482;28;20189;-63
2023/08/27 01:42:35;;;;;;;0.00;0.00;;;17.10;99.90;;;;;;5050335;28;20668;-62
2023/08/27 01:45:03;;;;;;;0.00;0.00;;;17.20;99.90;;;;;;5042187;28;20178;-63
2023/08/27 01:47:30;;;;;;;0.00;0.00;;;17.10;99.90;;;;;;5042912;28;20256;-63
2023/08/27 01:49:55;;;;;;;0.00;0.00;;;17.10;99.90;;;;;;5050253;28;20186;-62
2023/08/27 01:52:21;;;;;;;0.00;0.00;;;17.10;99.90;;;;;;5049969;28;20185;-63
2023/08/27 01:54:47;;;;;;;0.00;0.00;;;17.10;99.90;;;;;;5049917;28;20169;-62
2023/08/27 01:57:12;;;;;;;0.00;0.00;;;17.10;99.90;;;;;;5050057;28;20633;-62
2023/08/27 01:59:38;;;;;;;0.00;0.00;;;17.10;99.90;;;;;;5050057;28;20243;-63
2023/08/27 02:02:03;;;;;;;0.00;0.00;;;17.00;99.90;;;;;;5050081;28;20253;-63
2023/08/27 02:04:29;;;;;;;0.00;0.00;;;17.00;99.90;;;;;;5050122;28;20177;-62
2023/08/27 02:06:54;;;;;;;0.00;0.00;;;17.00;99.90;;;;;;5049999;28;20178;-62
2023/08/27 02:09:20;;;;;;;0.00;0.00;;;17.10;99.90;;;;;;5050256;28;20225;-62
2023/08/27 02:11:45;;;;;;;0.00;0.00;;;17.00;99.90;;;;;;5044685;28;20228;-63
2023/08/27 02:14:11;;;;;;;0.00;0.00;;;17.00;99.90;;;;;;5049473;28;20216;-62
2023/08/27 02:16:37;;;;;;;0.00;0.00;;;17.00;99.90;;;;;;5053538;28;20188;-62
2023/08/27 02:19:03;;;;;;;0.13;0.10;;;17.00;99.90;;;;;;5053343;28;20213;-62
2023/08/27 02:21:29;;;;;;;0.00;0.00;;;17.00;99.90;;;;;;5053467;28;20182;-62
2023/08/27 02:23:55;;;;;;;0.00;0.00;;;17.00;99.90;;;;;;5053384;28;20207;-63
2023/08/27 02:26:20;;;;;;;0.00;0.00;;;16.90;99.90;;;;;;5051819;28;20181;-63
2023/08/27 02:28:46;;;;;;;0.00;0.00;;;16.90;99.90;;;;;;5053301;28;20182;-62
2023/08/27 02:31:13;;;;;;;0.00;0.00;;;16.90;99.90;;;;;;5053068;28;20225;-63
2023/08/27 02:33:39;;;;;;;0.00;0.00;;;16.80;99.90;;;;;;5053133;28;20326;-62
2023/08/27 02:36:05;;;;;;;0.00;0.00;;;16.80;99.90;;;;;;5053063;28;20177;-63
2023/08/27 02:38:30;;;;;;;0.08;0.08;;;16.80;99.90;;;;;;5053015;28;20221;-63
2023/08/27 02:40:56;;;;;;;0.00;0.00;;;16.80;99.90;;;;;;5052973;28;20607;-63
2023/08/27 02:43:21;;;;;;;0.00;0.00;;;16.80;99.90;;;;;;5053123;28;20208;-63
2023/08/27 02:45:47;;;;;;;0.00;0.00;;;16.80;99.90;;;;;;5051354;28;20212;-63
2023/08/27 02:48:13;;;;;;;0.00;0.00;;;16.80;99.90;;;;;;5050763;28;20192;-62
2023/08/27 02:50:38;;;;;;;0.00;0.00;;;16.80;99.90;;;;;;5052815;28;20628;-63
2023/08/27 02:53:04;;;;;;;0.00;0.00;;;16.90;99.90;;;;;;5052894;28;20184;-63
2023/08/27 02:55:31;;;;;;;0.00;0.00;;;16.90;99.90;;;;;;5052831;28;20162;-62
2023/08/27 02:58:00;;;;;;;0.00;0.00;;;16.90;99.90;;;;;;5052750;28;20205;-63
2023/08/27 03:00:26;;;;;;;0.00;0.00;;;16.90;99.90;;;;;;5052775;28;20605;-63
2023/08/27 03:02:52;;;;;;;0.00;0.00;;;16.90;99.90;;;;;;5052976;28;20597;-63
2023/08/27 03:05:18;;;;;;;0.00;0.00;;;16.90;99.90;;;;;;5051499;28;20206;-63
2023/08/27 03:07:43;;;;;;;0.00;0.00;;;16.80;99.90;;;;;;5052871;28;20582;-63
2023/08/27 03:10:09;;;;;;;0.00;0.00;;;16.80;99.90;;;;;;5052757;28;20261;-63
2023/08/27 03:12:35;;;;;;;0.00;0.00;;;16.90;99.90;;;;;;5052705;28;20622;-62
2023/08/27 03:15:01;;;;;;;0.00;0.00;;;16.90;99.90;;;;;;5052453;28;20249;-62
2023/08/27 03:17:26;;;;;;;0.28;0.10;;;16.90;99.90;;;;;;5052080;28;20212;-62
2023/08/27 03:19:52;;;;;;;0.05;0.05;;;16.90;99.90;;;;;;5052809;28;20264;-62
2023/08/27 03:22:17;;;;;;;0.10;0.10;;;16.90;99.90;;;;;;5051373;28;20250;-63
2023/08/27 03:24:43;;;;;;;0.05;0.05;;;16.90;99.90;;;;;;5052644;28;20201;-63
2023/08/27 03:27:08;;;;;;;0.00;0.00;;;16.90;99.90;;;;;;5052497;28;20173;-62
2023/08/27 03:29:34;;;;;;;0.00;0.00;;;17.00;99.90;;;;;;5052439;28;20530;-63
2023/08/27 03:32:00;;;;;;;0.00;0.00;;;16.90;99.90;;;;;;5052427;28;20277;-62
2023/08/27 03:34:25;;;;;;;0.00;0.00;;;17.00;99.90;;;;;;5052460;28;20182;-63
2023/08/27 03:36:51;;;;;;;0.00;0.00;;;17.00;99.90;;;;;;5052339;28;20645;-62
2023/08/27 03:39:16;;;;;;;0.00;0.00;;;17.00;99.90;;;;;;5052131;28;20592;-62
2023/08/27 03:41:42;;;;;;;0.00;0.00;;;16.90;99.90;;;;;;5052378;28;20524;-62
2023/08/27 03:44:07;;;;;;;0.00;0.00;;;16.90;99.90;;;;;;5051837;28;20215;-62
2023/08/27 03:46:33;;;;;;;0.00;0.00;;;16.90;99.90;;;;;;5052327;28;20181;-62
2023/08/27 03:49:00;;;;;;;0.00;0.00;;;16.80;99.90;;;;;;5051961;28;20174;-62
2023/08/27 03:51:29;;;;;;;0.00;0.00;;;16.90;99.90;;;;;;5052244;28;20177;-62
2023/08/27 03:53:56;;;;;;;0.00;0.00;;;16.90;99.90;;;;;;5051894;28;20538;-62
2023/08/27 03:56:22;;;;;;;0.00;0.00;;;16.90;99.90;;;;;;5052078;28;20181;-62
2023/08/27 03:58:47;;;;;;;0.00;0.00;;;16.90;99.90;;;;;;5051726;28;20214;-62
2023/08/27 04:01:13;;;;;;;0.00;0.00;;;16.90;99.90;;;;;;5051989;28;20197;-62
2023/08/27 04:03:39;;;;;;;0.00;0.00;;;16.90;99.90;;;;;;5051940;28;20682;-62
2023/08/27 04:06:07;;;;;;;0.00;0.00;;;16.90;99.90;;;;;;5051908;28;20219;-63
2023/08/27 04:08:33;;;;;;;0.00;0.00;;;17.00;99.90;;;;;;5051957;28;20181;-62
2023/08/27 04:11:00;;;;;;;0.00;0.00;;;16.90;99.90;;;;;;5048954;28;20165;-62
2023/08/27 04:13:26;;;;;;;0.00;0.00;;;17.00;99.90;;;;;;5031922;28;20670;-62
2023/08/27 04:16:17;;;;;;;0.00;0.00;;;17.00;99.90;;;;;;5037724;28;20170;-62
2023/08/27 04:18:43;;;;;;;0.00;0.00;;;17.00;99.90;;;;;;5050374;28;20213;-62
2023/08/27 04:21:09;;;;;;;0.00;0.00;;;17.00;99.90;;;;;;5050462;28;20548;-63
2023/08/27 04:23:34;;;;;;;0.00;0.00;;;17.00;99.90;;;;;;5050687;28;20189;-62
2023/08/27 04:26:03;;;;;;;0.00;0.00;;;17.00;99.90;;;;;;5050585;28;20323;-62
2023/08/27 04:28:29;;;;;;;0.00;0.00;;;17.10;99.90;;;;;;5051268;28;20184;-62
2023/08/27 04:30:54;;;;;;;0.00;0.00;;;17.00;99.90;;;;;;5050747;28;20229;-62
2023/08/27 04:33:20;;;;;;;0.00;0.00;;;17.10;99.90;;;;;;5050888;28;20189;-62
2023/08/27 04:35:50;;;;;;;0.30;0.30;;;17.10;99.90;;;;;;5050669;28;20636;-63
2023/08/27 04:38:16;;;;;;;0.00;0.00;;;17.00;99.90;;;;;;5050885;28;20201;-62
2023/08/27 04:40:42;;;;;;;0.28;0.28;;;17.00;99.90;;;;;;5050425;28;20217;-63
2023/08/27 04:43:07;;;;;;;0.00;0.00;;;17.00;99.90;;;;;;5050911;28;20255;-63
2023/08/27 04:45:33;;;;;;;0.10;0.10;;;17.00;99.90;;;;;;5050937;28;20192;-63
2023/08/27 04:47:58;;;;;;;0.00;0.00;;;17.00;99.90;;;;;;5050890;28;20625;-63
2023/08/27 04:50:24;;;;;;;0.00;0.00;;;17.00;99.90;;;;;;5050774;28;20181;-64
2023/08/27 04:52:49;;;;;;;0.00;0.00;;;17.00;99.90;;;;;;5050404;28;20177;-63
2023/08/27 04:55:15;;;;;;;0.00;0.00;;;17.00;99.90;;;;;;5050897;28;20173;-63
2023/08/27 04:57:40;;;;;;;0.00;0.00;;;17.00;99.90;;;;;;5050469;28;20209;-63
2023/08/27 05:00:08;;;;;;;0.00;0.00;;;17.00;99.90;;;;;;5049999;28;20186;-63
2023/08/27 05:02:34;;;;;;;0.00;0.00;;;17.00;99.90;;;;;;5050726;28;20249;-63
2023/08/27 05:05:00;;;;;;;0.00;0.00;;;17.00;99.90;;;;;;5050443;28;20208;-63
2023/08/27 05:07:25;;;;;;;0.00;0.00;;;17.00;99.90;;;;;;5050711;28;20197;-63
2023/08/27 05:09:51;;;;;;;0.00;0.00;;;17.00;99.90;;;;;;5050300;28;20539;-63
2023/08/27 05:12:17;;;;;;;0.00;0.00;;;17.00;99.90;;;;;;5037245;28;20190;-63
2023/08/27 05:14:43;;;;;;;0.10;0.10;;;17.10;99.90;;;;;;5039428;28;20633;-63
2023/08/27 05:17:08;;;;;;;0.00;0.00;;;17.10;99.90;;;;;;5049251;28;20189;-63
2023/08/27 05:19:34;;;;;;;0.00;0.00;;;17.10;99.90;;;;;;5050447;28;20185;-63
2023/08/27 05:22:03;;;;;;;0.00;0.00;;;17.10;99.90;;;;;;5051505;28;20250;-63
2023/08/27 05:24:28;;;;;;;0.00;0.00;;;17.20;99.90;;;;;;5050643;28;20185;-63
2023/08/27 05:26:54;;;;;;;0.00;0.00;;;17.10;99.90;;;;;;5059280;28;20172;-63
2023/08/27 05:29:19;;;;;;;0.00;0.00;;;17.20;99.90;;;;;;5070351;28;20177;-64
2023/08/27 05:31:45;;;;;;;0.00;0.00;;;17.20;99.90;;;;;;5070586;28;20185;-63
2023/08/27 05:34:10;;;;;;;0.00;0.00;;;17.30;99.90;;;;;;5070533;28;20187;-63
2023/08/27 05:36:36;;;;;;;0.00;0.00;;;17.30;99.90;;;;;;5069308;28;20584;-63
2023/08/27 05:39:02;;;;;;;0.00;0.00;;;17.40;99.90;;;;;;5055849;28;20223;-63
2023/08/27 05:41:28;;;;;;;0.00;0.00;;;17.40;99.90;;;;;;5050521;28;20181;-63
2023/08/27 05:43:54;;;;;;;0.00;0.00;;;17.50;99.90;;;;;;5068156;28;20189;-60
2023/08/27 05:46:19;;;;;;;0.00;0.00;;;17.50;99.90;;;;;;5054749;28;20169;-61
2023/08/27 05:48:45;;;;;;;0.00;0.00;;;17.60;99.90;;;;;;5054103;28;20256;-61
2023/08/27 05:51:10;;;;;;;0.00;0.00;;;17.60;99.90;;;;;;5053922;28;20178;-61
2023/08/27 05:53:36;;;;;;;0.10;0.10;;;17.70;99.90;;;;;;5054096;28;20663;-61
2023/08/27 05:56:02;;;;;;;0.00;0.00;;;17.70;99.90;;;;;;5053665;28;20561;-61
2023/08/27 05:58:27;;;;;;;0.52;0.52;;;17.70;99.90;;;;;;5053917;28;20306;-61
2023/08/27 06:00:53;;;;;;;0.00;0.00;;;17.70;99.90;;;;;;5053740;28;20174;-61
2023/08/27 06:03:20;;;;;;;0.00;0.00;;;17.70;99.90;;;;;;5053527;28;20242;-62
2023/08/27 06:05:45;;;;;;;0.00;0.00;;;17.80;99.90;;;;;;5054040;28;20260;-61
2023/08/27 06:08:11;;;;;;;0.00;0.00;;;17.90;99.90;;;;;;5053723;28;20269;-61
2023/08/27 06:10:37;;;;;;;0.00;0.00;;;18.10;99.90;;;;;;5053485;28;20208;-61
2023/08/27 06:13:03;;;;;;;0.00;0.00;;;18.20;99.90;;;;;;5053424;28;20190;-62
2023/08/27 06:15:29;;;;;;;0.10;0.10;;;18.40;99.90;;;;;;5052970;28;20173;-61
2023/08/27 06:17:55;;;;;;;0.00;0.00;;;18.50;99.90;;;;;;5046410;28;20201;-61
2023/08/27 06:20:21;;;;;;;0.00;0.00;;;18.60;99.90;;;;;;5052691;28;20189;-62
2023/08/27 06:22:47;;;;;;;0.00;0.00;;;18.70;99.90;;;;;;5043893;28;20759;-61
2023/08/27 06:25:12;;;;;;;0.00;0.00;;;18.80;99.90;;;;;;5061301;28;20181;-62
2023/08/27 06:27:38;;;;;;;0.00;0.00;;;18.70;99.90;;;;;;5054448;28;20535;-59
2023/08/27 06:30:05;;;;;;;0.05;0.05;;;18.80;99.90;;;;;;5052424;28;20708;-60
2023/08/27 06:32:31;;;;;;;0.15;0.15;;;18.80;99.90;;;;;;5053087;28;20185;-59
2023/08/27 06:34:56;;;;;;;0.40;0.40;;;18.90;99.90;;;;;;5053094;28;20255;-62
2023/08/27 06:37:22;;;;;;;0.10;0.10;;;18.90;99.90;;;;;;5053259;28;20617;-61
2023/08/27 06:39:49;;;;;;;0.00;0.00;;;18.90;99.90;;;;;;5052724;28;20185;-62
2023/08/27 06:42:15;;;;;;;0.00;0.00;;;19.00;99.90;;;;;;5053094;28;20178;-63
2023/08/27 06:44:41;;;;;;;0.00;0.00;;;19.10;99.90;;;;;;5052961;28;20200;-62
2023/08/27 06:47:06;;;;;;;0.00;0.00;;;19.10;99.90;;;;;;5052778;28;20614;-62
2023/08/27 06:49:32;;;;;;;0.00;0.00;;;19.00;99.90;;;;;;5053106;28;20586;-61
2023/08/27 06:51:57;;;;;;;0.00;0.00;;;19.10;99.90;;;;;;5052539;28;20185;-61
2023/08/27 06:54:23;;;;;;;0.00;0.00;;;19.10;99.90;;;;;;5053036;28;20173;-62
2023/08/27 06:56:48;;;;;;;0.00;0.00;;;19.20;99.90;;;;;;5051164;28;20180;-61
2023/08/27 06:59:14;;;;;;;0.00;0.00;;;19.20;99.90;;;;;;5052685;28;20315;-61
2023/08/27 07:01:39;;;;;;;0.00;0.00;;;19.30;99.90;;;;;;5051730;28;20323;-62
2023/08/27 07:04:05;;;;;;;0.00;0.00;;;19.50;99.90;;;;;;5052842;28;20193;-61
2023/08/27 07:06:31;;;;;;;0.00;0.00;;;19.60;99.90;;;;;;5052194;28;20540;-63
2023/08/27 07:08:57;;;;;;;0.00;0.00;;;19.60;99.90;;;;;;5052613;28;20182;-61
2023/08/27 07:11:22;;;;;;;0.00;0.00;;;19.70;99.90;;;;;;5052973;28;20181;-61
2023/08/27 07:13:49;;;;;;;0.00;0.00;;;19.80;99.90;;;;;;5052931;28;20710;-61
2023/08/27 07:16:16;;;;;;;0.00;0.00;;;19.90;99.90;;;;;;5052831;28;20181;-62
2023/08/27 07:18:41;;;;;;;0.00;0.00;;;20.00;99.90;;;;;;5052527;28;20213;-61
2023/08/27 07:21:07;;;;;;;0.00;0.00;;;20.20;99.90;;;;;;5052707;28;20184;-61
2023/08/27 07:23:32;;;;;;;0.00;0.00;;;20.30;99.90;;;;;;5052735;28;20240;-61
2023/08/27 07:25:58;;;;;;;0.10;0.10;;;20.40;99.90;;;;;;5052654;28;20203;-62
2023/08/27 07:28:23;;;;;;;0.00;0.00;;;20.40;99.90;;;;;;5052438;28;20204;-61
2023/08/27 07:30:50;;;;;;;0.00;0.00;;;20.30;99.90;;;;;;5052498;28;20217;-62
2023/08/27 07:33:16;;;;;;;0.00;0.00;;;20.40;99.90;;;;;;5052731;28;20189;-62
2023/08/27 07:35:42;;;;;;;0.00;0.00;;;20.40;99.90;;;;;;5052587;28;20580;-62
2023/08/27 07:38:07;;;;;;;0.00;0.00;;;20.60;99.90;;;;;;5052123;28;20221;-62
2023/08/27 07:40:36;;;;;;;0.00;0.00;;;20.70;99.90;;;;;;5052539;28;20173;-62
2023/08/27 07:43:05;;;;;;;0.00;0.00;;;21.00;99.90;;;;;;5051968;28;20174;-62
2023/08/27 07:45:31;;;;;;;0.00;0.00;;;21.10;99.90;;;;;;5051521;28;20678;-63
2023/08/27 07:47:57;;;;;;;0.00;0.00;;;21.20;99.90;;;;;;5052182;28;20189;-62
2023/08/27 07:50:22;;;;;;;0.00;0.00;;;21.20;99.90;;;;;;5052264;28;20195;-62
2023/08/27 07:52:48;;;;;;;0.05;0.05;;;21.10;99.90;;;;;;5051743;28;20190;-62
2023/08/27 07:55:14;;;;;;;0.00;0.00;;;21.10;99.90;;;;;;5051524;28;20182;-62
2023/08/27 07:57:40;;;;;;;0.00;0.00;;;21.00;99.90;;;;;;5051382;28;20604;-62
2023/08/27 08:00:06;;;;;;;0.00;0.00;;;21.00;99.90;;;;;;5051303;28;20186;-62
2023/08/27 08:02:31;;;;;;;0.00;0.00;;;20.90;99.90;;;;;;5051047;28;20173;-62
2023/08/27 08:04:58;;;;;;;0.10;0.10;;;20.90;99.90;;;;;;5052809;28;20561;-62
2023/08/27 08:07:23;;;;;;;0.00;0.00;;;20.90;99.90;;;;;;5051675;28;20165;-62
2023/08/27 08:09:49;;;;;;;0.00;0.00;;;20.90;99.90;;;;;;5051897;28;20712;-62
2023/08/27 08:12:14;;;;;;;0.00;0.00;;;21.00;99.90;;;;;;5038876;28;20178;-62
2023/08/27 08:14:40;;;;;;;0.00;0.00;;;21.10;99.90;;;;;;5031836;28;20645;-62
2023/08/27 08:17:05;;;;;;;0.00;0.00;;;20.90;99.90;;;;;;5031825;28;20179;-63
2023/08/27 08:19:31;;;;;;;0.00;0.00;;;20.80;99.90;;;;;;5051168;28;20212;-62
2023/08/27 08:21:56;;;;;;;0.00;0.00;;;20.70;99.90;;;;;;5051587;28;20173;-62
2023/08/27 08:24:22;;;;;;;0.00;0.00;;;20.60;99.90;;;;;;5051725;28;20181;-62
2023/08/27 08:26:52;;;;;;;0.00;0.00;;;20.60;99.90;;;;;;5052707;28;20235;-62
2023/08/27 08:29:19;;;;;;;0.00;0.00;;;20.60;99.90;;;;;;5051470;28;20189;-62
2023/08/27 08:31:44;;;;;;;0.00;0.00;;;20.70;99.90;;;;;;5051584;28;20250;-62
2023/08/27 08:34:10;;;;;;;0.00;0.00;;;20.70;99.90;;;;;;5051463;28;20622;-62
2023/08/27 08:36:35;;;;;;;0.00;0.00;;;20.80;99.90;;;;;;5051275;28;20204;-63
2023/08/27 08:39:01;;;;;;;0.00;0.00;;;21.00;99.90;;;;;;5051188;28;20220;-62
2023/08/27 08:41:28;;;;;;;0.00;0.00;;;21.00;99.90;;;;;;5051244;28;20185;-62
2023/08/27 08:44:05;;;;;;;0.00;0.00;;;20.90;99.90;;;;;;5051299;28;20245;-62
2023/08/27 08:46:35;;;;;;;0.00;0.00;;;20.80;99.90;;;;;;5051095;28;20256;-62
2023/08/27 08:49:02;;;;;;;0.00;0.00;;;20.70;99.90;;;;;;5051100;28;20655;-62
2023/08/27 08:51:28;;;;;;;0.00;0.00;;;20.90;99.90;;;;;;5049523;28;20217;-62
2023/08/27 08:53:59;;;;;;;0.00;0.00;;;21.10;99.90;;;;;;5050060;28;20212;-62
2023/08/27 08:56:28;;;;;;;0.00;0.00;;;21.10;99.90;;;;;;5050408;28;20183;-62
2023/08/27 08:58:58;;;;;;;0.00;0.00;;;21.20;99.90;;;;;;5050954;28;20694;-62
2023/08/27 09:01:25;;;;;;;0.00;0.00;;;21.00;99.90;;;;;;5050780;28;20185;-63
2023/08/27 09:03:52;;;;;;;0.00;0.00;;;21.00;99.90;;;;;;5050921;28;20181;-62
2023/08/27 09:06:21;;;;;;;0.57;0.43;;;20.90;99.90;;;;;;5050696;28;20174;-63
2023/08/27 09:08:47;;;;;;;0.00;0.00;;;20.90;99.90;;;;;;5050569;28;20201;-62
2023/08/27 09:11:13;;;;;;;0.10;0.08;;;21.00;99.90;;;;;;5050551;28;20178;-63
2023/08/27 09:13:39;;;;;;;0.00;0.00;;;21.10;99.90;;;;;;5050440;28;20185;-63
2023/08/27 09:16:08;;;;;;;0.00;0.00;;;21.20;99.90;;;;;;5050444;28;20651;-62
2023/08/27 09:18:35;;;;;;;0.00;0.00;;;21.10;99.90;;;;;;5050371;28;20260;-63
2023/08/27 09:21:01;;;;;;;0.00;0.00;;;21.10;99.90;;;;;;5054447;28;20553;-62
2023/08/27 09:23:28;;;;;;;0.00;0.00;;;21.40;99.90;;;;;;5054808;28;20283;-62
2023/08/27 09:25:58;;;;;;;0.00;0.00;;;21.60;99.90;;;;;;5054468;28;20223;-63
2023/08/27 09:28:24;;;;;;;0.00;0.00;;;21.90;99.90;;;;;;5052989;28;20507;-63
2023/08/27 09:30:50;;;;;;;0.00;0.00;;;22.30;99.90;;;;;;5053988;28;20228;-63
2023/08/27 09:33:16;;;;;;;0.00;0.00;;;22.80;99.90;;;;;;5054373;28;20185;-63
2023/08/27 09:35:42;;;;;;;0.00;0.00;;;23.10;99.90;;;;;;5054639;28;20291;-63
2023/08/27 09:38:14;;;;;;;0.00;0.00;;;23.30;99.90;;;;;;5054562;28;20258;-63
2023/08/27 09:40:39;;;;;;;0.00;0.00;;;23.20;99.90;;;;;;5054122;28;20219;-62
2023/08/27 09:43:10;;;;;;;0.00;0.00;;;22.80;99.90;;;;;;5054089;28;20639;-63
2023/08/27 09:45:37;;;;;;;0.00;0.00;;;22.60;99.90;;;;;;5054657;28;20550;-62
2023/08/27 09:48:04;;;;;;;0.00;0.00;;;22.70;99.90;;;;;;5054256;28;20181;-63
2023/08/27 09:50:30;;;;;;;0.32;0.00;;;22.80;99.90;;;;;;5054295;28;20238;-63
2023/08/27 09:53:12;;;;;;;0.00;0.00;;;22.90;99.90;;;;;;5053829;28;20185;-62
2023/08/27 09:55:38;;;;;;;0.00;0.00;;;22.90;99.90;;;;;;5054558;28;20524;-62
2023/08/27 09:58:04;;;;;;;0.00;0.00;;;22.80;99.90;;;;;;5054008;28;20216;-63
2023/08/27 10:00:30;;;;;;;0.10;0.10;;;22.90;99.90;;;;;;5054377;28;20174;-63
2023/08/27 10:02:57;;;;;;;0.00;0.00;;;23.30;99.90;;;;;;5034295;28;20817;-63
2023/08/27 10:05:28;;;;;;;0.00;0.00;;;23.40;99.90;;;;;;5034236;28;20181;-63
2023/08/27 10:08:02;;;;;;;0.00;0.00;;;23.40;99.90;;;;;;5034185;28;20629;-63
2023/08/27 10:10:28;;;;;;;0.00;0.00;;;23.30;99.90;;;;;;5049515;28;20173;-63
2023/08/27 10:12:55;;;;;;;0.00;0.00;;;23.50;99.90;;;;;;5035763;28;20216;-63
2023/08/27 10:15:23;;;;;;;0.00;0.00;;;23.80;99.90;;;;;;5034139;28;20170;-63
2023/08/27 10:17:50;;;;;;;0.00;0.00;;;24.10;99.90;;;;;;5039341;28;20205;-63
2023/08/27 10:20:17;;;;;;;0.00;0.00;;;24.40;99.90;;;;;;5054031;28;20189;-63
2023/08/27 10:22:44;;;;;;;0.00;0.00;;;24.50;99.90;;;;;;5053826;28;20538;-63
2023/08/27 10:25:12;;;;;;;0.00;0.00;;;24.40;99.90;;;;;;5053775;28;20562;-63
2023/08/27 10:27:38;;;;;;;0.00;0.00;;;24.20;99.90;;;;;;5054012;28;20211;-63
2023/08/27 10:30:07;;;;;;;0.00;0.00;;;24.00;99.90;;;;;;5052300;28;20225;-63
2023/08/27 10:32:33;;;;;;;0.00;0.00;;;24.10;99.90;;;;;;5053684;28;20181;-63
2023/08/27 10:34:59;;;;;;;3.60;1.65;;;24.20;99.90;;;;;;5053603;28;20189;-63
2023/08/27 10:37:27;;;;;;;0.00;0.00;;;24.10;99.90;;;;;;5053568;28;20170;-63
2023/08/27 10:39:55;;;;;;;0.00;0.00;;;24.00;99.90;;;;;;5053560;28;20212;-63
2023/08/27 10:42:33;;;;;;;0.00;0.00;;;24.00;99.90;;;;;;5053524;28;20537;-63
2023/08/27 10:45:16;;;;;;;0.00;0.00;;;23.90;99.90;;;;;;5053167;28;20203;-63
2023/08/27 10:48:07;;;;;;;0.00;0.00;;;24.10;99.90;;;;;;5053435;28;20213;-62
2023/08/27 10:50:48;;;;;;;0.05;0.05;;;24.20;99.90;;;;;;5053265;28;20263;-63
2023/08/27 10:53:17;;;;;;;0.00;0.00;;;24.20;99.90;;;;;;5053196;28;20231;-63
2023/08/27 10:55:48;;;;;;;0.00;0.00;;;24.30;99.90;;;;;;5052833;28;20542;-62
2023/08/27 10:58:25;;;;;;;0.00;0.00;;;24.50;99.90;;;;;;5052638;28;20220;-63
2023/08/27 11:01:10;;;;;;;0.00;0.00;;;24.60;99.90;;;;;;5052281;28;20648;-64
2023/08/27 11:03:57;;;;;;;0.00;0.00;;;24.50;99.90;;;;;;5037529;28;20181;-63
2023/08/27 11:06:45;;;;;;;0.00;0.00;;;24.70;99.90;;;;;;5052817;28;20180;-63
2023/08/27 11:09:11;;;;;;;0.00;0.00;;;24.90;99.90;;;;;;5052757;28;20193;-63
2023/08/27 11:11:46;;;;;;;0.00;0.00;;;24.90;99.90;;;;;;5057534;28;20188;-63
2023/08/27 11:14:15;;;;;;;0.00;0.00;;;25.10;99.90;;;;;;5059511;28;20200;-63
2023/08/27 11:16:55;;;;;;;0.15;0.15;;;25.30;99.90;;;;;;5052862;28;20261;-63
2023/08/27 11:19:26;;;;;;;0.00;0.00;;;25.30;99.90;;;;;;5052686;28;20244;-63
2023/08/27 11:21:52;;;;;;;0.00;0.00;;;25.40;99.80;;;;;;5052843;28;20249;-63
2023/08/27 11:24:24;;;;;;;0.00;0.00;;;25.40;99.90;;;;;;5052656;28;20243;-63
2023/08/27 11:26:52;;;;;;;0.00;0.00;;;25.50;99.90;;;;;;5052358;28;20189;-63
2023/08/27 11:29:22;;;;;;;0.00;0.00;;;25.50;99.60;;;;;;5052243;28;20169;-62
2023/08/27 11:31:47;;;;;;;0.00;0.00;;;25.60;99.90;;;;;;5052457;28;20189;-62
2023/08/27 11:34:14;;;;;;;0.00;0.00;;;25.90;99.90;;;;;;5052557;28;20656;-63
2023/08/27 11:36:44;;;;;;;0.00;0.00;;;26.00;99.30;;;;;;5052519;28;20169;-63
2023/08/27 11:39:14;;;;;;;0.00;0.00;;;25.80;98.40;;;;;;5052281;28;20217;-63
2023/08/27 11:41:41;;;;;;;0.00;0.00;;;25.70;98.70;;;;;;5051897;28;20260;-63
2023/08/27 11:44:12;;;;;;;0.00;0.00;;;25.60;98.40;;;;;;5051266;28;20188;-63
2023/08/27 11:46:39;;;;;;;0.00;0.00;;;25.50;97.90;;;;;;5048321;28;20174;-63
2023/08/27 11:49:06;;;;;;;0.00;0.00;;;25.40;99.00;;;;;;5052124;28;20269;-62
2023/08/27 11:51:33;;;;;;;0.00;0.00;;;25.50;98.90;;;;;;5052571;28;20256;-63
2023/08/27 11:53:59;;;;;;;0.00;0.00;;;25.70;99.30;;;;;;5052412;28;20181;-63
2023/08/27 11:56:26;;;;;;;0.00;0.00;;;25.60;98.20;;;;;;5068519;28;20195;-63
2023/08/27 11:58:54;;;;;;;0.00;0.00;;;25.40;98.70;;;;;;5071951;28;20223;-63
2023/08/27 12:01:21;;;;;;;0.00;0.00;;;25.50;99.00;;;;;;5055856;28;20265;-63
2023/08/27 12:03:48;;;;;;;0.00;0.00;;;25.90;99.50;;;;;;5052259;28;20588;-62
2023/08/27 12:06:16;;;;;;;0.00;0.00;;;26.20;97.50;;;;;;5061352;28;20714;-62
2023/08/27 12:08:41;;;;;;;0.00;0.00;;;26.30;96.40;;;;;;5065341;28;20174;-62
2023/08/27 12:11:07;;;;;;;0.00;0.00;;;26.60;97.10;;;;;;5047444;28;20178;-63
2023/08/27 12:13:33;;;;;;;0.00;0.00;;;26.70;95.50;;;;;;5050822;28;20247;-62
2023/08/27 12:16:04;;;;;;;0.00;0.00;;;26.70;95.90;;;;;;5051527;28;20165;-62
2023/08/27 12:18:35;;;;;;;0.00;0.00;;;26.80;96.60;;;;;;5051330;28;20224;-62
2023/08/27 12:21:06;;;;;;;0.00;0.00;;;27.10;96.30;;;;;;5050926;28;20169;-62
2023/08/27 12:23:33;;;;;;;0.00;0.00;;;27.50;94.00;;;;;;5051445;28;20235;-62
2023/08/27 12:26:02;;;;;;;0.00;0.00;;;27.60;93.00;;;;;;5051070;28;20185;-62
2023/08/27 12:28:28;;;;;;;0.00;0.00;;;27.30;89.20;;;;;;5051158;28;20166;-62
2023/08/27 12:30:57;;;;;;;0.00;0.00;;;27.10;93.60;;;;;;5050787;28;20224;-62
2023/08/27 12:33:37;;;;;;;0.00;0.00;;;27.00;93.80;;;;;;5051370;28;20260;-62
2023/08/27 12:36:07;;;;;;;0.00;0.00;;;27.10;93.40;;;;;;5051185;28;20166;-63
2023/08/27 12:38:33;;;;;;;0.00;0.00;;;27.10;92.80;;;;;;5051416;28;20258;-62
2023/08/27 12:40:59;;;;;;;0.00;0.00;;;27.10;92.50;;;;;;5061850;28;20652;-62
2023/08/27 12:43:24;;;;;;;0.00;0.00;;;26.80;92.50;;;;;;5071309;28;20176;-60
2023/08/27 12:45:50;;;;;;;0.00;0.00;;;26.70;93.60;;;;;;5056428;28;20174;-61
2023/08/27 12:48:16;;;;;;;0.00;0.00;;;26.20;93.70;;;;;;5050916;28;20173;-61